sensor_id;sensor_type;location;lat;lon;timestamp;temperature;humidity
9828;DHT22;4953;48.952;9.442;2022-12-13T05:02:36;-4.30;99.90
9828;DHT22;4953;48.952;9.442;2022-12-13T05:05:03;-4.30;99.90
9828;DHT22;4953;48.952;9.442;2022-12-13T05:07:30;-4.30;99.90
9828;DHT22;4953;48.952;9.442;2022-12-13T05:09:57;-4.30;99.90
9828;DHT22;4953;48.952;9.442;2022-12-13T05:12:23;-4.30;99.90
9828;DHT22;4953;48.952;9.442;2022-12-13T05:14:50;-4.30;99.90
9828;DHT22;4953;48.952;9.442;2022-12-13T05:17:17;-4.30;99.90
9828;DHT22;4953;48.952;9.442;2022-12-13T05:19:46;-4.30;99.90
9828;DHT22;4953;48.952;9.442;2022-12-13T05:22:13;-4.30;99.90
9828;DHT22;4953;48.952;9.442;2022-12-13T05:24:41;-4.20;99.90
9828;DHT22;4953;48.952;9.442;2022-12-13T05:27:08;-4.20;99.90
9828;DHT22;4953;48.952;9.442;2022-12-13T05:29:35;-4.20;99.90
9828;DHT22;4953;48.952;9.442;2022-12-13T05:32:03;-4.20;99.90
9828;DHT22;4953;48.952;9.442;2022-12-13T05:34:30;-4.20;99.90
9828;DHT22;4953;48.952;9.442;2022-12-13T05:36:58;-4.20;99.90
9828;DHT22;4953;48.952;9.442;2022-12-13T05:39:25;-4.30;99.90
9828;DHT22;4953;48.952;9.442;2022-12-13T05:41:52;-4.30;99.90
9828;DHT22;4953;48.952;9.442;2022-12-13T05:44:20;-4.30;99.90
9828;DHT22;4953;48.952;9.442;2022-12-13T05:46:47;-4.30;99.90
9828;DHT22;4953;48.952;9.442;2022-12-13T05:49:13;-4.30;99.90
9828;DHT22;4953;48.952;9.442;2022-12-13T05:51:40;-4.30;99.90
9828;DHT22;4953;48.952;9.442;2022-12-13T05:54:09;-4.30;99.90
9828;DHT22;4953;48.952;9.442;2022-12-13T05:56:36;-4.40;99.90
9828;DHT22;4953;48.952;9.442;2022-12-13T05:59:02;-4.40;99.90
9828;DHT22;4953;48.952;9.442;2022-12-13T06:01:29;-4.40;99.90
9828;DHT22;4953;48.952;9.442;2022-12-13T06:03:56;-4.40;99.90
9828;DHT22;4953;48.952;9.442;2022-12-13T06:06:23;-4.40;99.90
9828;DHT22;4953;48.952;9.442;2022-12-13T06:08:50;-4.40;99.90
9828;DHT22;4953;48.952;9.442;2022-12-13T06:11:18;-4.40;99.90
9828;DHT22;4953;48.952;9.442;2022-12-13T06:13:49;-4.50;99.90
9828;DHT22;4953;48.952;9.442;2022-12-13T06:16:16;-4.40;99.90
9828;DHT22;4953;48.952;9.442;2022-12-13T06:18:43;-4.50;99.90
9828;DHT22;4953;48.952;9.442;2022-12-13T06:21:09;-4.50;99.90
9828;DHT22;4953;48.952;9.442;2022-12-13T06:23:36;-4.50;99.90
9828;DHT22;4953;48.952;9.442;2022-12-13T06:26:04;-4.50;99.90
9828;DHT22;4953;48.952;9.442;2022-12-13T06:28:33;-4.50;99.90
9828;DHT22;4953;48.952;9.442;2022-12-13T06:31:00;-4.50;99.90
9828;DHT22;4953;48.952;9.442;2022-12-13T06:33:27;-4.50;99.90
9828;DHT22;4953;48.952;9.442;2022-12-13T06:35:57;-4.50;99.90
9828;DHT22;4953;48.952;9.442;2022-12-13T06:38:25;-4.60;99.90
9828;DHT22;4953;48.952;9.442;2022-12-13T06:40:51;-4.60;99.90
9828;DHT22;4953;48.952;9.442;2022-12-13T06:43:18;-4.60;99.90
9828;DHT22;4953;48.952;9.442;2022-12-13T06:45:47;-4.60;99.90
9828;DHT22;4953;48.952;9.442;2022-12-13T06:48:14;-4.60;99.90
9828;DHT22;4953;48.952;9.442;2022-12-13T06:50:41;-4.60;99.90
9828;DHT22;4953;48.952;9.442;2022-12-13T06:53:08;-4.60;99.90
9828;DHT22;4953;48.952;9.442;2022-12-13T06:55:35;-4.60;99.90
9828;DHT22;4953;48.952;9.442;2022-12-13T06:58:02;-4.50;99.90
9828;DHT22;4953;48.952;9.442;2022-12-13T07:00:29;-4.50;99.90
9828;DHT22;4953;48.952;9.442;2022-12-13T07:02:57;-4.60;99.90
9828;DHT22;4953;48.952;9.442;2022-12-13T07:05:24;-4.50;99.90
9828;DHT22;4953;48.952;9.442;2022-12-13T07:07:52;-4.50;99.90
9828;DHT22;4953;48.952;9.442;2022-12-13T07:10:20;-4.50;99.90
9828;DHT22;4953;48.952;9.442;2022-12-13T07:12:47;-4.50;99.90
9828;DHT22;4953;48.952;9.442;2022-12-13T07:15:14;-4.50;99.90
9828;DHT22;4953;48.952;9.442;2022-12-13T07:17:40;-4.50;99.90
9828;DHT22;4953;48.952;9.442;2022-12-13T07:20:10;-4.50;99.90
9828;DHT22;4953;48.952;9.442;2022-12-13T07:22:39;-4.60;99.90
9828;DHT22;4953;48.952;9.442;2022-12-13T07:25:07;-4.50;99.90
9828;DHT22;4953;48.952;9.442;2022-12-13T07:27:34;-4.50;99.90
9828;DHT22;4953;48.952;9.442;2022-12-13T07:30:01;-4.50;99.90
9828;DHT22;4953;48.952;9.442;2022-12-13T07:32:29;-4.60;99.90
9828;DHT22;4953;48.952;9.442;2022-12-13T07:34:55;-4.60;99.90
9828;DHT22;4953;48.952;9.442;2022-12-13T07:37:23;-4.60;99.90
9828;DHT22;4953;48.952;9.442;2022-12-13T07:39:50;-4.50;99.90
9828;DHT22;4953;48.952;9.442;2022-12-13T07:42:17;-4.60;99.90
9828;DHT22;4953;48.952;9.442;2022-12-13T07:44:44;-4.60;99.90
9828;DHT22;4953;48.952;9.442;2022-12-13T07:47:11;-4.60;99.90
9828;DHT22;4953;48.952;9.442;2022-12-13T07:49:38;-4.50;99.90
9828;DHT22;4953;48.952;9.442;2022-12-13T07:52:09;-4.50;99.90
9828;DHT22;4953;48.952;9.442;2022-12-13T07:54:38;-4.50;99.90
9828;DHT22;4953;48.952;9.442;2022-12-13T07:57:05;-4.50;99.90
9828;DHT22;4953;48.952;9.442;2022-12-13T07:59:31;-4.50;99.90
9828;DHT22;4953;48.952;9.442;2022-12-13T08:01:58;-4.50;99.90
9828;DHT22;4953;48.952;9.442;2022-12-13T08:04:25;-4.50;99.90
9828;DHT22;4953;48.952;9.442;2022-12-13T08:06:52;-4.50;99.90
9828;DHT22;4953;48.952;9.442;2022-12-13T08:09:19;-4.50;99.90
9828;DHT22;4953;48.952;9.442;2022-12-13T08:11:47;-4.50;99.90
9828;DHT22;4953;48.952;9.442;2022-12-13T08:14:14;-4.50;99.90
9828;DHT22;4953;48.952;9.442;2022-12-13T08:16:41;-4.60;99.90
9828;DHT22;4953;48.952;9.442;2022-12-13T08:19:08;-4.50;99.90
9828;DHT22;4953;48.952;9.442;2022-12-13T08:21:37;-4.50;99.90
9828;DHT22;4953;48.952;9.442;2022-12-13T08:24:04;-4.50;99.90
9828;DHT22;4953;48.952;9.442;2022-12-13T08:26:31;-4.50;99.90
9828;DHT22;4953;48.952;9.442;2022-12-13T08:28:59;-4.40;99.90
9828;DHT22;4953;48.952;9.442;2022-12-13T08:31:26;-4.40;99.90
9828;DHT22;4953;48.952;9.442;2022-12-13T08:33:53;-4.40;99.90
9828;DHT22;4953;48.952;9.442;2022-12-13T08:36:19;-4.30;99.90
9828;DHT22;4953;48.952;9.442;2022-12-13T08:38:48;-4.30;99.90
9828;DHT22;4953;48.952;9.442;2022-12-13T08:41:17;-4.30;99.90
9828;DHT22;4953;48.952;9.442;2022-12-13T08:43:44;-4.20;99.90
9828;DHT22;4953;48.952;9.442;2022-12-13T08:46:12;-4.20;99.90
9828;DHT22;4953;48.952;9.442;2022-12-13T08:48:39;-4.20;99.90
9828;DHT22;4953;48.952;9.442;2022-12-13T08:51:08;-4.10;99.90
9828;DHT22;4953;48.952;9.442;2022-12-13T08:53:36;-4.00;99.90
9828;DHT22;4953;48.952;9.442;2022-12-13T08:56:04;-4.00;99.90
9828;DHT22;4953;48.952;9.442;2022-12-13T08:58:32;-3.90;99.90
9828;DHT22;4953;48.952;9.442;2022-12-13T09:00:59;-3.80;99.90
9828;DHT22;4953;48.952;9.442;2022-12-13T09:03:27;-3.70;99.90
9828;DHT22;4953;48.952;9.442;2022-12-13T09:05:54;-3.60;99.90
9828;DHT22;4953;48.952;9.442;2022-12-13T09:08:20;-3.50;99.90
9828;DHT22;4953;48.952;9.442;2022-12-13T09:10:55;-3.50;99.90
9828;DHT22;4953;48.952;9.442;2022-12-13T09:13:22;-3.40;99.90
9828;DHT22;4953;48.952;9.442;2022-12-13T09:15:48;-3.30;99.90
9828;DHT22;4953;48.952;9.442;2022-12-13T09:18:15;-3.20;99.90
9828;DHT22;4953;48.952;9.442;2022-12-13T09:20:43;-3.00;99.90
9828;DHT22;4953;48.952;9.442;2022-12-13T09:23:10;-2.90;99.90
9828;DHT22;4953;48.952;9.442;2022-12-13T09:25:37;-2.90;99.90
9828;DHT22;4953;48.952;9.442;2022-12-13T09:28:05;-2.80;99.90
9828;DHT22;4953;48.952;9.442;2022-12-13T09:30:33;-2.70;99.90
9828;DHT22;4953;48.952;9.442;2022-12-13T09:33:00;-2.60;99.90
9828;DHT22;4953;48.952;9.442;2022-12-13T09:35:27;-2.50;99.90
9828;DHT22;4953;48.952;9.442;2022-12-13T09:37:56;-2.40;99.90
9828;DHT22;4953;48.952;9.442;2022-12-13T09:40:25;-2.30;99.90
9828;DHT22;4953;48.952;9.442;2022-12-13T09:42:55;-2.20;99.90
9828;DHT22;4953;48.952;9.442;2022-12-13T09:45:23;-2.10;99.90
9828;DHT22;4953;48.952;9.442;2022-12-13T09:47:51;-2.00;99.90
9828;DHT22;4953;48.952;9.442;2022-12-13T09:50:23;-1.90;99.90
9828;DHT22;4953;48.952;9.442;2022-12-13T09:52:51;-1.80;99.90
9828;DHT22;4953;48.952;9.442;2022-12-13T09:55:22;-1.80;99.90
9828;DHT22;4953;48.952;9.442;2022-12-13T09:57:49;-1.60;99.90
9828;DHT22;4953;48.952;9.442;2022-12-13T10:00:18;-1.50;99.90
9828;DHT22;4953;48.952;9.442;2022-12-13T10:02:47;-1.40;99.90
9828;DHT22;4953;48.952;9.442;2022-12-13T10:05:18;-1.30;99.90
9828;DHT22;4953;48.952;9.442;2022-12-13T10:07:47;-1.20;99.90
9828;DHT22;4953;48.952;9.442;2022-12-13T10:10:14;-1.10;99.90
9828;DHT22;4953;48.952;9.442;2022-12-13T10:12:43;-1.00;99.90
9828;DHT22;4953;48.952;9.442;2022-12-13T10:15:16;-0.80;99.90
9828;DHT22;4953;48.952;9.442;2022-12-13T10:17:46;-0.70;99.90
9828;DHT22;4953;48.952;9.442;2022-12-13T10:20:16;-0.60;99.90
9828;DHT22;4953;48.952;9.442;2022-12-13T10:22:44;-0.60;99.90
9828;DHT22;4953;48.952;9.442;2022-12-13T10:25:10;-0.50;99.90
9828;DHT22;4953;48.952;9.442;2022-12-13T10:27:39;-0.50;99.90
9828;DHT22;4953;48.952;9.442;2022-12-13T10:30:10;-0.40;99.90
9828;DHT22;4953;48.952;9.442;2022-12-13T10:32:51;-0.30;99.90
9828;DHT22;4953;48.952;9.442;2022-12-13T10:35:26;-0.30;99.90
9828;DHT22;4953;48.952;9.442;2022-12-13T10:37:55;-0.20;99.90
9828;DHT22;4953;48.952;9.442;2022-12-13T10:40:29;-0.20;99.90
9828;DHT22;4953;48.952;9.442;2022-12-13T10:43:10;-0.10;99.90
9828;DHT22;4953;48.952;9.442;2022-12-13T10:45:39;0.00;99.90
9828;DHT22;4953;48.952;9.442;2022-12-13T10:48:17;0.30;99.90
9828;DHT22;4953;48.952;9.442;2022-12-13T10:50:55;0.40;99.90
9828;DHT22;4953;48.952;9.442;2022-12-13T10:53:26;0.40;99.90
9828;DHT22;4953;48.952;9.442;2022-12-13T10:55:54;0.50;99.90
9828;DHT22;4953;48.952;9.442;2022-12-13T10:58:22;0.60;99.90
9828;DHT22;4953;48.952;9.442;2022-12-13T11:00:50;0.60;99.90
9828;DHT22;4953;48.952;9.442;2022-12-13T11:03:29;0.60;99.90
9828;DHT22;4953;48.952;9.442;2022-12-13T11:06:02;0.60;99.90
9828;DHT22;4953;48.952;9.442;2022-12-13T11:08:29;0.60;99.90
9828;DHT22;4953;48.952;9.442;2022-12-13T11:10:57;0.70;99.90
9828;DHT22;4953;48.952;9.442;2022-12-13T11:13:33;0.70;99.90
9828;DHT22;4953;48.952;9.442;2022-12-13T11:16:03;0.80;99.90
9828;DHT22;4953;48.952;9.442;2022-12-13T11:18:34;0.90;99.90
9828;DHT22;4953;48.952;9.442;2022-12-13T11:21:04;1.00;99.90
9828;DHT22;4953;48.952;9.442;2022-12-13T11:23:33;1.10;99.90
9828;DHT22;4953;48.952;9.442;2022-12-13T11:26:05;1.20;99.90
9828;DHT22;4953;48.952;9.442;2022-12-13T11:28:57;1.20;99.90
9828;DHT22;4953;48.952;9.442;2022-12-13T11:31:36;1.30;99.90
9828;DHT22;4953;48.952;9.442;2022-12-13T11:34:18;1.30;99.90
9828;DHT22;4953;48.952;9.442;2022-12-13T11:36:52;1.30;99.90
9828;DHT22;4953;48.952;9.442;2022-12-13T11:39:25;1.40;99.90
9828;DHT22;4953;48.952;9.442;2022-12-13T11:41:58;1.40;99.90
9828;DHT22;4953;48.952;9.442;2022-12-13T11:44:32;1.40;99.90
9828;DHT22;4953;48.952;9.442;2022-12-13T11:47:06;1.40;99.90
9828;DHT22;4953;48.952;9.442;2022-12-13T11:49:40;1.40;99.90
9828;DHT22;4953;48.952;9.442;2022-12-13T11:52:14;1.50;99.90
9828;DHT22;4953;48.952;9.442;2022-12-13T11:54:48;1.50;99.90
9828;DHT22;4953;48.952;9.442;2022-12-13T11:57:24;1.50;99.90
9828;DHT22;4953;48.952;9.442;2022-12-13T12:00:03;1.50;99.90
9828;DHT22;4953;48.952;9.442;2022-12-13T12:02:34;1.60;99.90
9828;DHT22;4953;48.952;9.442;2022-12-13T12:05:05;1.60;99.90
9828;DHT22;4953;48.952;9.442;2022-12-13T12:07:38;1.60;99.90
9828;DHT22;4953;48.952;9.442;2022-12-13T12:10:17;1.70;99.90
9828;DHT22;4953;48.952;9.442;2022-12-13T12:12:54;1.60;99.90
9828;DHT22;4953;48.952;9.442;2022-12-13T12:15:25;1.60;99.90
9828;DHT22;4953;48.952;9.442;2022-12-13T12:17:55;1.60;99.90
9828;DHT22;4953;48.952;9.442;2022-12-13T12:20:27;1.60;99.90
9828;DHT22;4953;48.952;9.442;2022-12-13T12:23:10;1.50;99.90
9828;DHT22;4953;48.952;9.442;2022-12-13T12:25:44;1.50;99.90
9828;DHT22;4953;48.952;9.442;2022-12-13T12:28:23;1.60;99.90
9828;DHT22;4953;48.952;9.442;2022-12-13T12:31:02;1.80;99.90
9828;DHT22;4953;48.952;9.442;2022-12-13T12:33:40;1.80;99.90
9828;DHT22;4953;48.952;9.442;2022-12-13T12:36:21;1.80;99.90
9828;DHT22;4953;48.952;9.442;2022-12-13T12:41:58;1.70;99.90
9828;DHT22;4953;48.952;9.442;2022-12-13T12:44:36;1.80;99.90
9828;DHT22;4953;48.952;9.442;2022-12-13T12:47:18;1.80;99.90
9828;DHT22;4953;48.952;9.442;2022-12-13T12:50:17;1.80;99.90
9828;DHT22;4953;48.952;9.442;2022-12-13T12:52:57;1.80;99.90
9828;DHT22;4953;48.952;9.442;2022-12-13T12:55:34;1.80;99.90
9828;DHT22;4953;48.952;9.442;2022-12-13T12:58:09;1.80;99.90
9828;DHT22;4953;48.952;9.442;2022-12-13T13:00:44;1.70;99.90
9828;DHT22;4953;48.952;9.442;2022-12-13T13:03:17;1.70;99.90
9828;DHT22;4953;48.952;9.442;2022-12-13T13:05:50;1.60;99.90
9828;DHT22;4953;48.952;9.442;2022-12-13T13:08:22;1.60;99.90
9828;DHT22;4953;48.952;9.442;2022-12-13T13:10:51;1.60;99.90
9828;DHT22;4953;48.952;9.442;2022-12-13T13:13:33;1.60;99.90
9828;DHT22;4953;48.952;9.442;2022-12-13T13:16:00;1.70;99.90
9828;DHT22;4953;48.952;9.442;2022-12-13T13:18:45;1.60;99.90
9828;DHT22;4953;48.952;9.442;2022-12-13T13:24:20;1.50;99.90
9828;DHT22;4953;48.952;9.442;2022-12-13T13:26:49;1.50;99.90
9828;DHT22;4953;48.952;9.442;2022-12-13T13:29:35;1.40;99.90
9828;DHT22;4953;48.952;9.442;2022-12-13T13:32:08;1.30;99.90
9828;DHT22;4953;48.952;9.442;2022-12-13T13:34:47;1.20;99.90
9828;DHT22;4953;48.952;9.442;2022-12-13T13:37:43;1.20;99.90
9828;DHT22;4953;48.952;9.442;2022-12-13T13:40:28;1.10;99.90
9828;DHT22;4953;48.952;9.442;2022-12-13T13:43:17;1.10;99.90
9828;DHT22;4953;48.952;9.442;2022-12-13T13:45:56;1.10;99.90
9828;DHT22;4953;48.952;9.442;2022-12-13T13:48:32;1.00;99.90
9828;DHT22;4953;48.952;9.442;2022-12-13T13:51:37;1.00;99.90
9828;DHT22;4953;48.952;9.442;2022-12-13T13:54:34;1.00;99.90
9828;DHT22;4953;48.952;9.442;2022-12-13T14:03:34;0.90;99.90
9828;DHT22;4953;48.952;9.442;2022-12-13T14:12:38;0.70;99.90
9828;DHT22;4953;48.952;9.442;2022-12-13T14:21:45;0.70;99.90
9828;DHT22;4953;48.952;9.442;2022-12-13T14:24:23;0.60;99.90
9828;DHT22;4953;48.952;9.442;2022-12-13T14:27:02;0.60;99.90
9828;DHT22;4953;48.952;9.442;2022-12-13T14:29:32;0.40;99.90
9828;DHT22;4953;48.952;9.442;2022-12-13T14:32:00;0.40;99.90
9828;DHT22;4953;48.952;9.442;2022-12-13T14:34:29;0.40;99.90
9828;DHT22;4953;48.952;9.442;2022-12-13T14:36:59;0.30;99.90
9828;DHT22;4953;48.952;9.442;2022-12-13T14:39:29;0.40;99.90
9828;DHT22;4953;48.952;9.442;2022-12-13T14:41:59;0.30;99.90
9828;DHT22;4953;48.952;9.442;2022-12-13T14:44:27;0.20;99.90
9828;DHT22;4953;48.952;9.442;2022-12-13T14:46:59;0.20;99.90
9828;DHT22;4953;48.952;9.442;2022-12-13T14:49:30;0.10;99.90
9828;DHT22;4953;48.952;9.442;2022-12-13T14:51:59;0.00;99.90
9828;DHT22;4953;48.952;9.442;2022-12-13T14:54:30;-0.10;99.90
9828;DHT22;4953;48.952;9.442;2022-12-13T14:56:58;-0.10;99.90
9828;DHT22;4953;48.952;9.442;2022-12-13T14:59:26;0.00;99.90
9828;DHT22;4953;48.952;9.442;2022-12-13T15:01:56;-0.10;99.90
9828;DHT22;4953;48.952;9.442;2022-12-13T15:04:28;-0.10;99.90
9828;DHT22;4953;48.952;9.442;2022-12-13T15:07:03;-0.10;99.90
9828;DHT22;4953;48.952;9.442;2022-12-13T15:09:34;-0.10;99.90
9828;DHT22;4953;48.952;9.442;2022-12-13T15:12:08;-0.20;99.90
9828;DHT22;4953;48.952;9.442;2022-12-13T15:14:38;-0.20;99.90
9828;DHT22;4953;48.952;9.442;2022-12-13T15:17:24;-0.20;99.90
9828;DHT22;4953;48.952;9.442;2022-12-13T15:19:51;-0.20;99.90
9828;DHT22;4953;48.952;9.442;2022-12-13T15:22:19;-0.20;99.90
9828;DHT22;4953;48.952;9.442;2022-12-13T15:24:46;-0.20;99.90
9828;DHT22;4953;48.952;9.442;2022-12-13T15:27:14;-0.30;99.90
9828;DHT22;4953;48.952;9.442;2022-12-13T15:29:42;-0.30;99.90
9828;DHT22;4953;48.952;9.442;2022-12-13T15:32:12;-0.40;99.90
9828;DHT22;4953;48.952;9.442;2022-12-13T15:34:41;-0.40;99.90
9828;DHT22;4953;48.952;9.442;2022-12-13T15:37:16;-0.40;99.90
9828;DHT22;4953;48.952;9.442;2022-12-13T15:39:46;-0.40;99.90
9828;DHT22;4953;48.952;9.442;2022-12-13T15:42:16;-0.40;99.90
9828;DHT22;4953;48.952;9.442;2022-12-13T15:44:46;-0.50;99.90
9828;DHT22;4953;48.952;9.442;2022-12-13T15:47:15;-0.50;99.90
9828;DHT22;4953;48.952;9.442;2022-12-13T15:49:49;-0.60;99.90
9828;DHT22;4953;48.952;9.442;2022-12-13T15:52:34;-0.70;99.90
9828;DHT22;4953;48.952;9.442;2022-12-13T15:55:24;-0.70;99.90
9828;DHT22;4953;48.952;9.442;2022-12-13T15:57:52;-0.70;99.90
9828;DHT22;4953;48.952;9.442;2022-12-13T16:00:21;-0.80;99.90
9828;DHT22;4953;48.952;9.442;2022-12-13T16:02:52;-0.80;99.90
9828;DHT22;4953;48.952;9.442;2022-12-13T16:05:27;-0.90;99.90
9828;DHT22;4953;48.952;9.442;2022-12-13T16:07:55;-0.80;99.90
9828;DHT22;4953;48.952;9.442;2022-12-13T16:10:25;-0.90;99.90
9828;DHT22;4953;48.952;9.442;2022-12-13T16:12:56;-0.90;99.90
9828;DHT22;4953;48.952;9.442;2022-12-13T16:15:25;-0.90;99.90
9828;DHT22;4953;48.952;9.442;2022-12-13T16:17:54;-1.00;99.90
9828;DHT22;4953;48.952;9.442;2022-12-13T16:20:23;-1.00;99.90
9828;DHT22;4953;48.952;9.442;2022-12-13T16:22:50;-1.00;99.90
9828;DHT22;4953;48.952;9.442;2022-12-13T16:25:18;-1.00;99.90
9828;DHT22;4953;48.952;9.442;2022-12-13T16:27:46;-1.10;99.90
9828;DHT22;4953;48.952;9.442;2022-12-13T16:30:22;-1.20;99.90
9828;DHT22;4953;48.952;9.442;2022-12-13T16:32:49;-1.20;99.90
9828;DHT22;4953;48.952;9.442;2022-12-13T16:35:17;-1.20;99.90
9828;DHT22;4953;48.952;9.442;2022-12-13T16:37:44;-1.10;99.90
9828;DHT22;4953;48.952;9.442;2022-12-13T16:40:22;-1.10;99.90
9828;DHT22;4953;48.952;9.442;2022-12-13T16:42:51;-1.20;99.90
9828;DHT22;4953;48.952;9.442;2022-12-13T16:45:21;-1.20;99.90
9828;DHT22;4953;48.952;9.442;2022-12-13T16:47:48;-1.30;99.90
9828;DHT22;4953;48.952;9.442;2022-12-13T16:50:16;-1.30;99.90
9828;DHT22;4953;48.952;9.442;2022-12-13T16:52:43;-1.30;99.90
9828;DHT22;4953;48.952;9.442;2022-12-13T16:55:10;-1.30;99.90
9828;DHT22;4953;48.952;9.442;2022-12-13T16:57:37;-1.30;99.90
9828;DHT22;4953;48.952;9.442;2022-12-13T17:00:09;-1.30;99.90
9828;DHT22;4953;48.952;9.442;2022-12-13T17:02:36;-1.30;99.90
9828;DHT22;4953;48.952;9.442;2022-12-13T17:05:04;-1.30;99.90
9828;DHT22;4953;48.952;9.442;2022-12-13T17:07:31;-1.30;99.90
9828;DHT22;4953;48.952;9.442;2022-12-13T17:09:59;-1.20;99.90
9828;DHT22;4953;48.952;9.442;2022-12-13T17:12:26;-1.30;99.90
9828;DHT22;4953;48.952;9.442;2022-12-13T17:14:53;-1.30;99.90
9828;DHT22;4953;48.952;9.442;2022-12-13T17:17:21;-1.30;99.90
9828;DHT22;4953;48.952;9.442;2022-12-13T17:19:48;-1.30;99.90
9828;DHT22;4953;48.952;9.442;2022-12-13T17:22:15;-1.40;99.90
9828;DHT22;4953;48.952;9.442;2022-12-13T17:24:42;-1.40;99.90
9828;DHT22;4953;48.952;9.442;2022-12-13T17:27:09;-1.40;99.90
9828;DHT22;4953;48.952;9.442;2022-12-13T17:29:37;-1.40;99.90
9828;DHT22;4953;48.952;9.442;2022-12-13T17:32:07;-1.50;99.90
9828;DHT22;4953;48.952;9.442;2022-12-13T17:34:37;-1.50;99.90
9828;DHT22;4953;48.952;9.442;2022-12-13T17:37:04;-1.50;99.90
9828;DHT22;4953;48.952;9.442;2022-12-13T17:39:31;-1.40;99.90
9828;DHT22;4953;48.952;9.442;2022-12-13T17:41:58;-1.40;99.90
9828;DHT22;4953;48.952;9.442;2022-12-13T17:44:25;-1.40;99.90
9828;DHT22;4953;48.952;9.442;2022-12-13T17:46:53;-1.40;99.90
9828;DHT22;4953;48.952;9.442;2022-12-13T17:49:20;-1.40;99.90
9828;DHT22;4953;48.952;9.442;2022-12-13T17:51:48;-1.30;99.90
9828;DHT22;4953;48.952;9.442;2022-12-13T17:54:17;-1.30;99.90
9828;DHT22;4953;48.952;9.442;2022-12-13T17:56:44;-1.30;99.90
9828;DHT22;4953;48.952;9.442;2022-12-13T17:59:11;-1.30;99.90
9828;DHT22;4953;48.952;9.442;2022-12-13T18:01:40;-1.30;99.90
9828;DHT22;4953;48.952;9.442;2022-12-13T18:04:07;-1.30;99.90
9828;DHT22;4953;48.952;9.442;2022-12-13T18:06:35;-1.40;99.90
9828;DHT22;4953;48.952;9.442;2022-12-13T18:09:03;-1.30;99.90
9828;DHT22;4953;48.952;9.442;2022-12-13T18:11:30;-1.30;99.90
9828;DHT22;4953;48.952;9.442;2022-12-13T18:13:57;-1.30;99.90
9828;DHT22;4953;48.952;9.442;2022-12-13T18:16:25;-1.30;99.90
9828;DHT22;4953;48.952;9.442;2022-12-13T18:18:53;-1.30;99.90
9828;DHT22;4953;48.952;9.442;2022-12-13T18:21:20;-1.30;99.90
9828;DHT22;4953;48.952;9.442;2022-12-13T18:23:47;-1.30;99.90
9828;DHT22;4953;48.952;9.442;2022-12-13T18:26:16;-1.30;99.90
9828;DHT22;4953;48.952;9.442;2022-12-13T18:28:44;-1.30;99.90
9828;DHT22;4953;48.952;9.442;2022-12-13T18:31:13;-1.20;99.90
9828;DHT22;4953;48.952;9.442;2022-12-13T18:33:40;-1.20;99.90
9828;DHT22;4953;48.952;9.442;2022-12-13T18:36:08;-1.10;99.90
9828;DHT22;4953;48.952;9.442;2022-12-13T18:38:36;-1.10;99.90
9828;DHT22;4953;48.952;9.442;2022-12-13T18:41:05;-1.10;99.90
9828;DHT22;4953;48.952;9.442;2022-12-13T18:43:35;-1.10;99.90
9828;DHT22;4953;48.952;9.442;2022-12-13T18:46:03;-1.10;99.90
9828;DHT22;4953;48.952;9.442;2022-12-13T18:48:31;-1.10;99.90
9828;DHT22;4953;48.952;9.442;2022-12-13T18:50:58;-1.10;99.90
9828;DHT22;4953;48.952;9.442;2022-12-13T18:53:25;-1.00;99.90
9828;DHT22;4953;48.952;9.442;2022-12-13T18:55:52;-1.00;99.90
9828;DHT22;4953;48.952;9.442;2022-12-13T18:58:25;-1.00;99.90
9828;DHT22;4953;48.952;9.442;2022-12-13T19:00:54;-1.00;99.90
9828;DHT22;4953;48.952;9.442;2022-12-13T19:03:21;-1.00;99.90
9828;DHT22;4953;48.952;9.442;2022-12-13T19:05:49;-1.00;99.90
9828;DHT22;4953;48.952;9.442;2022-12-13T19:08:15;-1.00;99.90
9828;DHT22;4953;48.952;9.442;2022-12-13T19:10:43;-1.00;99.90
9828;DHT22;4953;48.952;9.442;2022-12-13T19:13:10;-1.00;99.90
9828;DHT22;4953;48.952;9.442;2022-12-13T19:15:37;-1.00;99.90
9828;DHT22;4953;48.952;9.442;2022-12-13T19:18:06;-1.10;99.90
9828;DHT22;4953;48.952;9.442;2022-12-13T19:20:33;-1.10;99.90
9828;DHT22;4953;48.952;9.442;2022-12-13T19:22:59;-1.10;99.90
9828;DHT22;4953;48.952;9.442;2022-12-13T19:25:26;-1.10;99.90
9828;DHT22;4953;48.952;9.442;2022-12-13T19:27:53;-1.10;99.90
9828;DHT22;4953;48.952;9.442;2022-12-13T19:30:21;-1.10;99.90
9828;DHT22;4953;48.952;9.442;2022-12-13T19:32:48;-1.10;99.90
9828;DHT22;4953;48.952;9.442;2022-12-13T19:35:16;-1.10;99.90
9828;DHT22;4953;48.952;9.442;2022-12-13T19:37:43;-1.10;99.90
9828;DHT22;4953;48.952;9.442;2022-12-13T19:40:10;-1.10;99.90
9828;DHT22;4953;48.952;9.442;2022-12-13T19:42:38;-1.10;99.90
9828;DHT22;4953;48.952;9.442;2022-12-13T19:45:05;-1.10;99.90
9828;DHT22;4953;48.952;9.442;2022-12-13T19:47:32;-1.00;99.90
9828;DHT22;4953;48.952;9.442;2022-12-13T19:49:59;-1.00;99.90
9828;DHT22;4953;48.952;9.442;2022-12-13T19:52:27;-1.00;99.90
9828;DHT22;4953;48.952;9.442;2022-12-13T19:54:54;-1.10;99.90
9828;DHT22;4953;48.952;9.442;2022-12-13T19:57:21;-1.10;99.90
9828;DHT22;4953;48.952;9.442;2022-12-13T19:59:48;-1.00;99.90
9828;DHT22;4953;48.952;9.442;2022-12-13T20:02:14;-1.00;99.90
9828;DHT22;4953;48.952;9.442;2022-12-13T20:04:41;-1.00;99.90
9828;DHT22;4953;48.952;9.442;2022-12-13T20:07:09;-1.00;99.90
9828;DHT22;4953;48.952;9.442;2022-12-13T20:09:37;-1.00;99.90
9828;DHT22;4953;48.952;9.442;2022-12-13T20:12:05;-1.00;99.90
9828;DHT22;4953;48.952;9.442;2022-12-13T20:14:32;-0.90;99.90
9828;DHT22;4953;48.952;9.442;2022-12-13T20:16:58;-0.90;99.90
9828;DHT22;4953;48.952;9.442;2022-12-13T20:19:25;-0.80;99.90
9828;DHT22;4953;48.952;9.442;2022-12-13T20:21:52;-0.80;99.90
9828;DHT22;4953;48.952;9.442;2022-12-13T20:24:19;-0.90;99.90
9828;DHT22;4953;48.952;9.442;2022-12-13T20:26:47;-0.90;99.90
9828;DHT22;4953;48.952;9.442;2022-12-13T20:29:14;-0.80;99.90
9828;DHT22;4953;48.952;9.442;2022-12-13T20:31:42;-0.80;99.90
9828;DHT22;4953;48.952;9.442;2022-12-13T20:34:12;-0.80;99.90
9828;DHT22;4953;48.952;9.442;2022-12-13T20:36:40;-0.90;99.90
9828;DHT22;4953;48.952;9.442;2022-12-13T20:39:09;-0.90;99.90
9828;DHT22;4953;48.952;9.442;2022-12-13T20:41:36;-0.90;99.90
9828;DHT22;4953;48.952;9.442;2022-12-13T20:44:06;-0.90;99.90
9828;DHT22;4953;48.952;9.442;2022-12-13T20:46:34;-0.90;99.90
9828;DHT22;4953;48.952;9.442;2022-12-13T20:49:02;-0.90;99.90
9828;DHT22;4953;48.952;9.442;2022-12-13T20:51:30;-1.00;99.90
9828;DHT22;4953;48.952;9.442;2022-12-13T20:53:58;-0.90;99.90
9828;DHT22;4953;48.952;9.442;2022-12-13T20:56:26;-0.90;99.90
9828;DHT22;4953;48.952;9.442;2022-12-13T20:58:54;-0.90;99.90
9828;DHT22;4953;48.952;9.442;2022-12-13T21:01:23;-0.80;99.90
9828;DHT22;4953;48.952;9.442;2022-12-13T21:03:53;-0.80;99.90
9828;DHT22;4953;48.952;9.442;2022-12-13T21:06:19;-0.90;99.90
9828;DHT22;4953;48.952;9.442;2022-12-13T21:08:47;-0.80;99.90
9828;DHT22;4953;48.952;9.442;2022-12-13T21:11:16;-0.80;99.90
9828;DHT22;4953;48.952;9.442;2022-12-13T21:13:58;-0.80;99.90
9828;DHT22;4953;48.952;9.442;2022-12-13T21:16:29;-0.80;99.90
9828;DHT22;4953;48.952;9.442;2022-12-13T21:18:58;-0.90;99.90
9828;DHT22;4953;48.952;9.442;2022-12-13T21:21:26;-0.80;99.90
9828;DHT22;4953;48.952;9.442;2022-12-13T21:23:55;-0.80;99.90
9828;DHT22;4953;48.952;9.442;2022-12-13T21:26:24;-0.80;99.90
9828;DHT22;4953;48.952;9.442;2022-12-13T21:28:52;-0.90;99.90
9828;DHT22;4953;48.952;9.442;2022-12-13T21:31:19;-0.90;99.90
9828;DHT22;4953;48.952;9.442;2022-12-13T21:33:49;-0.80;99.90
9828;DHT22;4953;48.952;9.442;2022-12-13T21:36:18;-0.90;99.90
9828;DHT22;4953;48.952;9.442;2022-12-13T21:38:46;-0.90;99.90
9828;DHT22;4953;48.952;9.442;2022-12-13T21:41:13;-0.90;99.90
9828;DHT22;4953;48.952;9.442;2022-12-13T21:43:40;-0.80;99.90
9828;DHT22;4953;48.952;9.442;2022-12-13T21:46:08;-0.90;99.90
9828;DHT22;4953;48.952;9.442;2022-12-13T21:48:36;-0.90;99.90